Time;durP1;ratioP1;P1;durP2;ratioP2;P2;SDS_P1;SDS_P2;PMS_P1;PMS_P2;Temp;Humidity;BMP_temperature;BMP_pressure;BME280_temperature;BME280_humidity;BME280_pressure;Samples;Min_cycle;Max_cycle;Signal;HPM_P1;HPM_P2
2021/08/07 00:02:08;;;;;;;8.90;5.97;;;;;;;10.96;100.00;97922.10;2283369;76;20989;-84
2021/08/07 00:05:09;;;;;;;6.28;5.65;;;;;;;10.99;100.00;97922.53;2283440;78;20955;-84
2021/08/07 00:08:10;;;;;;;9.25;6.33;;;;;;;11.01;100.00;97918.39;2283336;77;21040;-85
2021/08/07 00:11:11;;;;;;;10.35;5.85;;;;;;;11.01;100.00;97913.16;2283573;78;20953;-84
2021/08/07 00:14:12;;;;;;;10.23;6.12;;;;;;;11.02;100.00;97916.88;2283094;78;20987;-84
2021/08/07 00:17:13;;;;;;;12.40;6.33;;;;;;;11.04;100.00;97917.47;2282970;78;21092;-84
2021/08/07 00:20:14;;;;;;;11.18;6.22;;;;;;;11.05;100.00;97917.77;2283225;78;21068;-84
2021/08/07 00:23:15;;;;;;;11.57;6.58;;;;;;;11.05;100.00;97913.84;2283307;78;21024;-84
2021/08/07 00:26:15;;;;;;;9.65;5.62;;;;;;;11.05;100.00;97924.32;2283210;77;21044;-84
2021/08/07 00:29:16;;;;;;;7.72;5.33;;;;;;;11.03;100.00;97925.54;2283557;78;21549;-84
2021/08/07 00:32:17;;;;;;;9.63;6.20;;;;;;;10.99;100.00;97926.45;2283595;78;20984;-85
2021/08/07 00:35:18;;;;;;;10.05;6.25;;;;;;;10.98;100.00;97926.16;2283665;78;21011;-85
2021/08/07 00:38:18;;;;;;;7.65;6.22;;;;;;;10.99;100.00;97923.84;2283445;78;21539;-85
2021/08/07 00:41:19;;;;;;;8.73;5.90;;;;;;;11.00;100.00;97933.30;2283396;77;20933;-85
2021/08/07 00:44:20;;;;;;;8.30;5.95;;;;;;;11.01;100.00;97932.30;2283506;78;21479;-86
2021/08/07 00:47:21;;;;;;;12.28;6.85;;;;;;;11.00;100.00;97934.61;2283560;78;21047;-86
2021/08/07 00:50:22;;;;;;;6.78;4.78;;;;;;;10.98;100.00;97931.90;2283500;78;20988;-84
2021/08/07 00:53:22;;;;;;;9.70;6.05;;;;;;;10.91;100.00;97933.20;2283473;78;21511;-83
2021/08/07 00:56:23;;;;;;;8.05;6.25;;;;;;;10.85;100.00;97929.25;2283408;77;20980;-84
2021/08/07 00:59:24;;;;;;;8.28;5.72;;;;;;;10.81;100.00;97928.86;2283390;78;21019;-84
2021/08/07 01:02:24;;;;;;;8.00;5.70;;;;;;;10.77;100.00;97934.17;2293090;77;20975;-84
2021/08/07 01:05:25;;;;;;;9.48;5.67;;;;;;;10.73;100.00;97939.02;2301359;77;22034;-85
2021/08/07 01:08:26;;;;;;;7.70;5.47;;;;;;;10.75;100.00;97936.19;2301658;77;21057;-84
2021/08/07 01:11:27;;;;;;;8.45;6.00;;;;;;;10.79;100.00;97942.66;2301350;77;20939;-84
2021/08/07 01:14:28;;;;;;;6.97;5.97;;;;;;;10.81;100.00;97942.76;2301570;77;21541;-84
2021/08/07 01:17:28;;;;;;;6.67;5.70;;;;;;;10.81;100.00;97940.64;2301398;77;21005;-85
2021/08/07 01:20:29;;;;;;;8.10;5.40;;;;;;;10.90;100.00;97949.12;2301462;77;21011;-84
2021/08/07 01:23:30;;;;;;;6.35;5.65;;;;;;;10.92;100.00;97940.55;2301586;77;21066;-84
2021/08/07 01:26:32;;;;;;;8.65;5.30;;;;;;;10.97;100.00;97945.50;2301549;77;20970;-84
2021/08/07 01:29:33;;;;;;;8.23;5.62;;;;;;;10.98;100.00;97944.49;2301330;77;21058;-84
2021/08/07 01:32:34;;;;;;;7.65;5.08;;;;;;;10.98;100.00;97947.11;2301268;77;21042;-85
2021/08/07 01:35:34;;;;;;;6.42;4.60;;;;;;;10.91;100.00;97944.98;2301132;77;20974;-84
2021/08/07 01:38:35;;;;;;;6.33;4.50;;;;;;;10.89;100.00;97944.89;2301361;77;20943;-84
2021/08/07 01:41:36;;;;;;;5.53;4.75;;;;;;;10.91;100.00;97950.22;2301185;77;20990;-84
2021/08/07 01:44:37;;;;;;;6.53;4.95;;;;;;;10.93;100.00;97946.09;2301259;77;21446;-85
2021/08/07 01:47:38;;;;;;;7.17;5.12;;;;;;;10.95;100.00;97948.80;2301186;77;21403;-85
2021/08/07 01:50:38;;;;;;;5.90;4.58;;;;;;;10.97;100.00;97951.22;2301351;77;20994;-85
2021/08/07 01:53:39;;;;;;;7.87;4.58;;;;;;;10.94;100.00;97946.39;2301172;77;20999;-85
2021/08/07 01:56:40;;;;;;;10.63;5.30;;;;;;;10.92;100.00;97949.72;2301299;77;21548;-84
2021/08/07 01:59:41;;;;;;;8.05;5.08;;;;;;;10.85;100.00;97945.77;2300681;77;20931;-84
2021/08/07 02:02:41;;;;;;;3.72;3.42;;;;;;;10.75;100.00;97951.40;2290348;77;21559;-84
2021/08/07 02:05:42;;;;;;;7.67;4.67;;;;;;;10.58;100.00;97953.27;2282325;78;21023;-85
2021/08/07 02:08:43;;;;;;;4.58;4.17;;;;;;;10.40;100.00;97948.59;2282954;78;20941;-85
2021/08/07 02:11:44;;;;;;;5.83;4.28;;;;;;;10.29;100.00;97942.12;2283181;78;20980;-84
2021/08/07 02:14:45;;;;;;;5.67;5.03;;;;;;;10.24;100.00;97947.95;2283478;78;21392;-85
2021/08/07 02:17:45;;;;;;;8.20;4.40;;;;;;;10.25;100.00;97955.30;2283408;78;21003;-85
2021/08/07 02:20:46;;;;;;;4.62;4.17;;;;;;;10.25;100.00;97951.37;2284274;78;21487;-85
2021/08/07 02:23:47;;;;;;;5.33;4.15;;;;;;;10.28;100.00;97950.97;2283526;78;21031;-84
2021/08/07 02:26:48;;;;;;;5.78;4.53;;;;;;;10.31;100.00;97953.19;2283673;78;21072;-84
2021/08/07 02:29:49;;;;;;;5.87;4.62;;;;;;;10.27;100.00;97949.36;2283427;77;20981;-84
2021/08/07 02:32:50;;;;;;;5.53;5.00;;;;;;;10.17;100.00;97951.51;2283637;78;21559;-84
2021/08/07 02:35:50;;;;;;;7.15;4.85;;;;;;;10.08;100.00;97955.30;2283466;77;20932;-85
2021/08/07 02:38:51;;;;;;;9.35;5.10;;;;;;;10.03;100.00;97963.70;2283414;78;21051;-85
2021/08/07 02:41:52;;;;;;;6.53;4.28;;;;;;;10.08;100.00;97969.17;2283488;78;21555;-84
2021/08/07 02:44:53;;;;;;;6.90;4.72;;;;;;;10.12;100.00;97973.51;2283515;78;20996;-84
2021/08/07 02:47:54;;;;;;;4.70;3.95;;;;;;;10.13;100.00;97970.69;2283434;78;21586;-84
2021/08/07 02:50:54;;;;;;;6.50;4.72;;;;;;;10.13;100.00;97975.12;2283338;78;20972;-86
2021/08/07 02:53:55;;;;;;;7.03;5.03;;;;;;;10.12;100.00;97978.73;2283455;78;21511;-85
2021/08/07 02:56:56;;;;;;;4.42;3.65;;;;;;;10.10;100.00;97978.94;2283303;78;21054;-86
2021/08/07 02:59:57;;;;;;;5.72;4.00;;;;;;;10.10;100.00;97983.36;2283593;77;20963;-84
2021/08/07 03:02:58;;;;;;;5.62;3.27;;;;;;;10.10;100.00;97980.75;2293259;77;21033;-86
2021/08/07 03:05:58;;;;;;;4.85;4.42;;;;;;;10.03;100.00;97987.24;2301042;77;21510;-84
2021/08/07 03:08:59;;;;;;;4.22;3.50;;;;;;;9.98;100.00;97982.61;2301016;77;20954;-85
2021/08/07 03:12:00;;;;;;;7.20;3.72;;;;;;;9.98;100.00;97981.80;2301201;77;20998;-84
2021/08/07 03:15:01;;;;;;;6.45;3.62;;;;;;;10.00;100.00;97983.72;2301145;77;20939;-85
2021/08/07 03:18:01;;;;;;;5.05;3.45;;;;;;;9.96;100.00;97983.78;2301374;77;21533;-85
2021/08/07 03:21:02;;;;;;;4.30;3.90;;;;;;;10.03;100.00;97987.24;2301309;77;20989;-85
2021/08/07 03:24:03;;;;;;;7.10;3.83;;;;;;;10.09;100.00;97982.56;2301342;77;21457;-86
2021/08/07 03:27:04;;;;;;;5.22;4.17;;;;;;;10.14;100.00;97985.88;2301539;77;21001;-85
2021/08/07 03:30:04;;;;;;;4.35;3.95;;;;;;;10.19;100.00;97987.44;2301302;77;21007;-86
2021/08/07 03:33:05;;;;;;;4.47;4.08;;;;;;;10.24;100.00;97981.13;2301497;77;20907;-85
2021/08/07 03:36:06;;;;;;;6.92;4.35;;;;;;;10.42;100.00;97984.05;2301527;77;21046;-86
2021/08/07 03:39:07;;;;;;;4.67;4.05;;;;;;;10.59;100.00;97987.60;2301269;77;21022;-85
2021/08/07 03:42:08;;;;;;;6.90;3.92;;;;;;;10.73;100.00;97984.84;2300994;77;21020;-86
2021/08/07 03:45:08;;;;;;;4.87;4.33;;;;;;;10.82;100.00;97984.95;2300817;77;20950;-85
2021/08/07 03:48:09;;;;;;;4.92;3.90;;;;;;;11.03;100.00;97981.86;2300987;77;20981;-85
2021/08/07 03:51:10;;;;;;;4.75;3.83;;;;;;;11.23;100.00;97983.18;2301138;77;21010;-84
2021/08/07 03:54:11;;;;;;;4.92;4.20;;;;;;;11.50;100.00;97985.30;2301330;77;21266;-84
2021/08/07 03:57:12;;;;;;;7.00;4.00;;;;;;;11.75;100.00;97992.84;2301464;77;21064;-84
2021/08/07 04:00:13;;;;;;;6.00;4.80;;;;;;;12.18;100.00;97987.13;2301208;77;20978;-84
2021/08/07 04:03:13;;;;;;;6.08;4.75;;;;;;;12.75;100.00;97984.94;2290603;77;21595;-84
2021/08/07 04:06:14;;;;;;;5.55;4.28;;;;;;;13.35;100.00;97984.07;2283343;78;21018;-84
2021/08/07 04:09:15;;;;;;;6.33;4.50;;;;;;;13.75;100.00;97981.59;2283475;77;21508;-85
2021/08/07 04:12:16;;;;;;;5.08;4.40;;;;;;;14.23;100.00;97989.06;2283239;77;20944;-85
2021/08/07 04:15:17;;;;;;;6.70;4.30;;;;;;;14.75;100.00;97985.52;2283217;78;20972;-85
2021/08/07 04:18:17;;;;;;;5.78;3.80;;;;;;;15.09;100.00;97985.86;2283170;78;21027;-85
2021/08/07 04:21:18;;;;;;;5.47;4.53;;;;;;;15.66;100.00;97981.42;2283368;78;21027;-84
2021/08/07 04:24:19;;;;;;;4.95;4.45;;;;;;;16.18;100.00;97989.70;2283348;78;21432;-85
2021/08/07 04:27:20;;;;;;;10.88;5.55;;;;;;;16.35;100.00;97986.31;2283359;77;21034;-85
2021/08/07 04:30:21;;;;;;;6.60;4.70;;;;;;;16.89;100.00;97984.19;2283451;78;21024;-85
2021/08/07 04:33:22;;;;;;;6.00;4.95;;;;;;;17.44;100.00;97986.96;2283584;77;20992;-86
2021/08/07 04:36:23;;;;;;;5.80;5.17;;;;;;;18.04;100.00;97986.80;2283065;78;20940;-86
2021/08/07 04:39:23;;;;;;;5.35;4.80;;;;;;;18.40;100.00;97996.80;2283444;77;22153;-85
2021/08/07 04:42:24;;;;;;;5.85;4.62;;;;;;;18.82;100.00;97994.09;2283164;78;20999;-86
2021/08/07 04:45:25;;;;;;;6.08;4.97;;;;;;;19.27;100.00;97992.39;2283294;78;20933;-86
2021/08/07 04:48:26;;;;;;;7.42;4.83;;;;;;;19.56;100.00;97999.02;2283262;78;20987;-86
2021/08/07 04:51:26;;;;;;;5.58;4.95;;;;;;;19.84;100.00;97995.75;2283142;78;21035;-86
2021/08/07 04:54:27;;;;;;;8.38;5.28;;;;;;;20.22;100.00;97992.53;2283272;77;20941;-86
2021/08/07 04:57:28;;;;;;;7.45;5.05;;;;;;;20.44;100.00;97993.97;2283161;78;21547;-86
2021/08/07 05:00:29;;;;;;;5.58;5.00;;;;;;;20.49;100.00;97996.39;2283400;78;20940;-85
2021/08/07 05:03:29;;;;;;;4.85;4.35;;;;;;;20.61;100.00;97997.75;2293568;77;20979;-86
2021/08/07 05:06:30;;;;;;;8.15;5.70;;;;;;;20.55;100.00;97999.32;2301264;77;21058;-87
2021/08/07 05:09:31;;;;;;;8.28;5.62;;;;;;;20.65;100.00;98007.33;2301121;77;20963;-87
2021/08/07 05:12:32;;;;;;;8.00;5.58;;;;;;;20.44;99.80;98006.47;2301285;77;21558;-85
2021/08/07 05:15:32;;;;;;;10.43;6.65;;;;;;;20.17;99.75;98007.91;2301035;77;20997;-86
2021/08/07 05:18:40;;;;;;;9.08;6.55;;;;;;;20.07;100.00;98012.64;2301304;77;22055;-86
2021/08/07 05:21:36;;;;;;;10.28;7.20;;;;;;;20.20;99.24;98018.54;2299169;77;21002;-86
2021/08/07 05:24:37;;;;;;;8.68;6.65;;;;;;;20.17;98.79;98016.67;2301180;77;20951;-86
2021/08/07 05:27:38;;;;;;;8.30;6.35;;;;;;;20.15;99.27;98023.31;2301169;77;20986;-84
2021/08/07 05:30:38;;;;;;;8.23;6.62;;;;;;;20.14;98.73;98017.73;2301216;77;21002;-84
2021/08/07 05:33:39;;;;;;;8.58;7.60;;;;;;;20.11;99.04;98024.34;2301091;77;20959;-85
2021/08/07 05:36:40;;;;;;;7.25;6.55;;;;;;;20.11;98.56;98019.03;2300942;77;21462;-85
2021/08/07 05:39:41;;;;;;;7.25;6.05;;;;;;;20.14;98.30;98013.75;2300919;77;20962;-85
2021/08/07 05:42:41;;;;;;;6.70;5.55;;;;;;;20.25;98.36;98018.05;2301179;77;20990;-85
2021/08/07 05:45:42;;;;;;;9.78;6.25;;;;;;;20.38;98.34;98019.42;2300973;77;21529;-85
2021/08/07 05:48:43;;;;;;;7.75;5.95;;;;;;;20.38;98.87;98021.55;2301005;77;20943;-85
2021/08/07 05:51:44;;;;;;;6.22;5.62;;;;;;;20.61;98.34;98021.69;2301232;77;21474;-86
2021/08/07 05:54:44;;;;;;;6.60;6.00;;;;;;;20.81;98.09;98018.81;2301179;77;20947;-87
2021/08/07 05:57:45;;;;;;;7.78;5.33;;;;;;;21.07;98.17;98034.31;2301208;77;21514;-85
2021/08/07 06:00:47;;;;;;;5.92;4.92;;;;;;;21.11;97.64;98033.51;2274519;77;21752;-86
2021/08/07 06:03:48;;;;;;;6.28;4.75;;;;;;;21.20;97.08;98039.11;2308788;76;21085;-86
2021/08/07 06:06:48;;;;;;;7.90;5.90;;;;;;;21.25;97.33;98039.93;2314754;77;20968;-86
2021/08/07 06:09:49;;;;;;;6.10;4.78;;;;;;;21.35;97.04;98039.70;2314661;77;21017;-86
2021/08/07 06:12:50;;;;;;;7.67;5.65;;;;;;;21.48;97.18;98037.30;2314702;77;21027;-86
2021/08/07 06:15:51;;;;;;;5.37;4.90;;;;;;;21.42;96.81;98033.05;2314512;77;21051;-85
2021/08/07 06:18:51;;;;;;;6.15;4.75;;;;;;;21.44;96.33;98037.58;2314234;77;21662;-86
2021/08/07 06:21:52;;;;;;;5.72;4.87;;;;;;;21.42;96.02;98044.24;2314144;77;21011;-85
2021/08/07 06:24:53;;;;;;;5.85;4.47;;;;;;;21.39;96.03;98041.55;2315868;76;20956;-84
2021/08/07 06:27:54;;;;;;;7.45;5.00;;;;;;;21.43;95.50;98052.49;2309062;76;21001;-85
2021/08/07 06:30:55;;;;;;;12.07;4.70;;;;;;;21.43;95.44;98057.82;2307708;77;20944;-85
2021/08/07 06:33:55;;;;;;;5.33;4.83;;;;;;;21.47;95.64;98052.22;2314711;77;21328;-85
2021/08/07 06:36:56;;;;;;;4.92;4.42;;;;;;;21.52;96.07;98058.89;2315425;76;21083;-85
2021/08/07 06:39:57;;;;;;;4.40;4.00;;;;;;;21.51;95.95;98059.42;2314766;77;20985;-85
2021/08/07 06:42:57;;;;;;;4.72;3.85;;;;;;;21.65;95.28;98058.34;2312710;77;20921;-85
2021/08/07 06:45:58;;;;;;;5.17;4.55;;;;;;;21.76;95.43;98048.48;2306637;77;21520;-84
2021/08/07 06:48:58;;;;;;;4.62;4.17;;;;;;;21.75;94.15;98050.34;2306588;77;20941;-86
2021/08/07 06:51:59;;;;;;;4.33;3.92;;;;;;;21.76;94.90;98051.14;2305217;77;21575;-85
2021/08/07 06:55:00;;;;;;;4.22;3.47;;;;;;;21.79;94.83;98055.95;2304901;77;21079;-87
2021/08/07 06:58:00;;;;;;;4.42;3.83;;;;;;;21.77;95.42;98052.23;2306387;77;20961;-85
2021/08/07 07:01:01;;;;;;;4.72;3.87;;;;;;;21.77;95.35;98056.77;2306700;77;21027;-84
2021/08/07 07:04:02;;;;;;;4.03;3.72;;;;;;;21.79;96.25;98059.42;2309155;77;21096;-84
2021/08/07 07:07:04;;;;;;;4.50;4.10;;;;;;;21.79;94.22;98067.95;2310963;77;21005;-80
2021/08/07 07:10:04;;;;;;;4.08;3.77;;;;;;;21.78;95.66;98075.67;2311060;77;21024;-85
2021/08/07 07:13:06;;;;;;;4.55;3.47;;;;;;;21.73;94.62;98077.80;2311207;77;20944;-85
2021/08/07 07:16:06;;;;;;;4.72;3.80;;;;;;;21.64;94.76;98073.27;2311158;77;20981;-85
2021/08/07 07:19:07;;;;;;;4.37;3.62;;;;;;;21.67;95.96;98071.39;2311152;77;20965;-84
2021/08/07 07:22:08;;;;;;;3.92;3.62;;;;;;;21.67;96.03;98078.05;2311084;77;20992;-80
2021/08/07 07:25:09;;;;;;;4.90;3.50;;;;;;;21.67;96.14;98067.39;2311082;77;20918;-87
2021/08/07 07:28:10;;;;;;;5.58;4.30;;;;;;;21.71;96.23;98072.48;2311153;77;20957;-84
2021/08/07 07:31:11;;;;;;;5.00;4.45;;;;;;;21.79;96.66;98070.08;2311053;77;20926;-84
2021/08/07 07:34:12;;;;;;;4.55;3.98;;;;;;;21.85;95.73;98077.02;2311294;77;21568;-86
2021/08/07 07:37:12;;;;;;;3.50;3.22;;;;;;;21.87;95.63;98068.74;2311272;77;21083;-86
2021/08/07 07:40:13;;;;;;;3.77;3.45;;;;;;;21.88;95.13;98067.67;2311287;77;20984;-87
2021/08/07 07:43:15;;;;;;;3.72;3.42;;;;;;;21.94;95.87;98068.45;2311302;77;21056;-89
2021/08/07 07:46:15;;;;;;;3.92;3.50;;;;;;;22.01;95.57;98067.11;2311018;77;21425;-88
2021/08/07 07:49:16;;;;;;;4.78;3.40;;;;;;;22.03;94.89;98069.50;2311082;77;21027;-86
2021/08/07 07:52:17;;;;;;;3.85;3.55;;;;;;;22.03;93.69;98070.83;2311193;77;20984;-86
2021/08/07 07:55:18;;;;;;;4.25;3.62;;;;;;;21.97;92.19;98079.92;2311040;77;21052;-87
2021/08/07 07:58:19;;;;;;;3.35;3.05;;;;;;;21.84;91.32;98078.58;2310886;77;21472;-86
2021/08/07 08:01:19;;;;;;;3.87;3.33;;;;;;;21.82;91.58;98082.05;2310674;77;21041;-88
2021/08/07 08:04:20;;;;;;;4.00;3.50;;;;;;;21.76;90.60;98077.78;2310038;77;21040;-83
2021/08/07 08:07:21;;;;;;;4.60;4.20;;;;;;;21.78;92.60;98082.34;2310381;77;21288;-86
2021/08/07 08:10:22;;;;;;;3.72;3.30;;;;;;;21.99;93.29;98084.45;2310646;77;20992;-86
2021/08/07 08:13:23;;;;;;;3.58;3.20;;;;;;;22.18;92.96;98084.72;2310449;77;21009;-86
2021/08/07 08:16:24;;;;;;;3.60;3.30;;;;;;;22.33;92.22;98082.03;2310992;77;20999;-85
2021/08/07 08:19:24;;;;;;;2.52;2.42;;;;;;;22.47;91.92;98083.03;2310854;77;21088;-85
2021/08/07 08:22:25;;;;;;;4.22;3.37;;;;;;;22.60;91.91;98094.48;2310983;77;20998;-87
2021/08/07 08:25:28;;;;;;;2.92;2.72;;;;;;;22.76;91.60;98090.40;2310729;77;20956;-87
2021/08/07 08:28:29;;;;;;;43.68;10.68;;;;;;;22.90;90.65;98099.45;2310443;77;21038;-85
2021/08/07 08:31:29;;;;;;;4.72;3.33;;;;;;;22.95;89.70;98102.08;2310782;77;20978;-85
2021/08/07 08:34:30;;;;;;;3.62;2.42;;;;;;;23.05;90.15;98104.73;2310535;77;21049;-85
2021/08/07 08:37:31;;;;;;;3.12;2.02;;;;;;;23.21;89.61;98108.89;2310696;77;20997;-85
2021/08/07 08:40:32;;;;;;;2.05;1.95;;;;;;;23.39;88.48;98111.99;2310577;77;21073;-87
2021/08/07 08:43:33;;;;;;;1.80;1.70;;;;;;;23.66;88.84;98111.58;2281802;77;20994;-85
2021/08/07 08:46:35;;;;;;;3.45;2.98;;;;;;;23.93;86.18;98115.90;2310774;77;21566;-86
2021/08/07 08:49:36;;;;;;;2.00;1.90;;;;;;;24.09;86.85;98111.22;2310652;77;21539;-86
2021/08/07 08:52:37;;;;;;;3.40;2.20;;;;;;;24.25;86.50;98113.22;2310837;77;20921;-84
2021/08/07 08:55:39;;;;;;;1.95;1.85;;;;;;;24.37;84.58;98110.44;2310493;77;20996;-87
2021/08/07 08:58:40;;;;;;;2.50;2.08;;;;;;;24.19;82.83;98108.45;2310994;77;21004;-84
2021/08/07 09:01:42;;;;;;;1.72;1.62;;;;;;;24.03;80.39;98121.70;2310283;77;21048;-84
2021/08/07 09:04:42;;;;;;;2.20;2.00;;;;;;;23.88;81.72;98120.51;2307456;77;21044;-84
2021/08/07 09:07:44;;;;;;;1.95;1.85;;;;;;;23.91;82.25;98123.95;2306261;77;21005;-84
2021/08/07 09:10:44;;;;;;;3.67;2.33;;;;;;;23.98;82.10;98120.42;2306060;77;21655;-84
2021/08/07 09:13:45;;;;;;;1.70;1.60;;;;;;;24.01;81.41;98116.63;2306180;77;20934;-85
2021/08/07 09:16:46;;;;;;;1.82;1.70;;;;;;;23.99;79.67;98118.00;2306431;77;21491;-85
2021/08/07 09:19:47;;;;;;;2.42;2.27;;;;;;;23.88;79.16;98120.51;2306763;77;20930;-86
2021/08/07 09:22:48;;;;;;;2.22;2.12;;;;;;;23.81;79.14;98119.48;2307115;77;21517;-86
2021/08/07 09:25:51;;;;;;;2.83;1.85;;;;;;;24.02;80.68;98122.23;2306371;77;21040;-86
2021/08/07 09:28:51;;;;;;;3.47;1.50;;;;;;;24.28;80.01;98113.44;2305891;77;21128;-86
2021/08/07 09:31:52;;;;;;;1.50;1.40;;;;;;;24.50;79.33;98120.20;2306494;77;21032;-83
2021/08/07 09:34:53;;;;;;;1.98;1.15;;;;;;;24.66;78.13;98112.27;2306442;77;21441;-83
2021/08/07 09:37:53;;;;;;;2.30;1.90;;;;;;;24.83;77.82;98113.14;2306596;77;21514;-84
2021/08/07 09:40:54;;;;;;;1.40;1.30;;;;;;;24.96;77.24;98125.81;2306502;77;21076;-84
2021/08/07 09:43:55;;;;;;;1.50;1.40;;;;;;;25.04;77.28;98125.20;2306575;77;20949;-84
2021/08/07 09:46:56;;;;;;;8.20;3.85;;;;;;;25.19;77.96;98129.03;2306693;77;21475;-84
2021/08/07 09:49:57;;;;;;;1.55;1.20;;;;;;;25.27;76.60;98140.20;2306590;77;20980;-87
2021/08/07 09:52:57;;;;;;;1.75;1.47;;;;;;;25.41;75.50;98132.47;2306814;77;20977;-88
2021/08/07 09:55:58;;;;;;;1.27;1.17;;;;;;;25.43;74.74;98140.25;2307072;77;21428;-89
2021/08/07 09:58:59;;;;;;;1.70;1.32;;;;;;;25.34;74.03;98144.12;2307181;77;21005;-88
2021/08/07 10:02:00;;;;;;;1.47;1.37;;;;;;;25.13;71.28;98140.89;2306805;77;21029;-88
2021/08/07 10:05:01;;;;;;;1.55;1.10;;;;;;;25.04;71.95;98138.59;2306643;77;21024;-87
2021/08/07 10:08:02;;;;;;;1.45;1.35;;;;;;;24.97;71.30;98135.47;2306675;77;21008;-86
2021/08/07 10:11:03;;;;;;;0.98;0.90;;;;;;;24.95;71.22;98139.75;2306544;77;20965;-86
2021/08/07 10:17:29;;;;;;;1.55;1.45;;;;;;;24.90;70.28;98138.48;2305393;77;20997;-85
2021/08/07 10:20:30;;;;;;;1.60;1.25;;;;;;;24.90;70.89;98147.86;2304194;77;21073;-88
2021/08/07 10:23:31;;;;;;;1.72;1.62;;;;;;;24.88;70.10;98147.89;2306521;77;20941;-85
2021/08/07 10:26:32;;;;;;;1.75;1.62;;;;;;;24.82;70.04;98153.05;2306441;77;21005;-86
2021/08/07 10:29:33;;;;;;;4.33;1.75;;;;;;;24.70;69.50;98149.44;2305751;77;20989;-85
2021/08/07 10:32:34;;;;;;;2.10;1.67;;;;;;;24.66;69.60;98159.89;2306361;77;21496;-87
2021/08/07 10:35:47;;;;;;;;;;;;;;;;;;;;;
2021/08/07 10:38:39;;;;;;;1.50;1.40;;;;;;;24.72;69.44;98158.52;2149897;82;21578;-85
2021/08/07 10:41:40;;;;;;;1.65;1.47;;;;;;;24.61;69.46;98155.95;2156179;82;21151;-86
2021/08/07 10:48:08;;;;;;;1.90;1.80;;;;;;;24.35;70.35;98159.42;2147621;82;21095;-86
2021/08/07 10:51:09;;;;;;;2.05;1.32;;;;;;;24.32;70.72;98165.86;2148220;83;21103;-88
2021/08/07 10:54:09;;;;;;;1.77;1.67;;;;;;;24.29;70.55;98159.17;2148196;83;21130;-84
2021/08/07 10:57:10;;;;;;;1.90;1.80;;;;;;;24.31;70.83;98158.37;2147811;83;21151;-86
2021/08/07 11:00:14;;;;;;;2.80;2.55;;;;;;;24.32;69.74;98157.31;2147640;83;21597;-86
2021/08/07 11:06:35;;;;;;;3.90;1.90;;;;;;;24.39;70.26;98141.71;2127916;82;21612;-84
2021/08/07 11:09:54;;;;;;;1.80;1.70;;;;;;;24.34;68.70;98142.32;2147753;82;21017;-85
2021/08/07 11:12:49;;;;;;;2.55;1.87;;;;;;;24.31;69.70;98142.83;2165677;82;21556;-85
2021/08/07 11:15:50;;;;;;;1.55;1.45;;;;;;;24.33;70.40;98138.84;2172203;81;21157;-84
2021/08/07 11:18:51;;;;;;;1.77;1.30;;;;;;;24.40;70.56;98146.52;2121181;84;21605;-85
2021/08/07 11:21:52;;;;;;;1.40;1.40;;;;;;;24.51;71.08;98145.36;2091101;85;21125;-83
2021/08/07 11:25:19;;;;;;;;;;;;;;;;;;;;;
2021/08/07 11:28:19;;;;;;;1.60;1.50;;;;;;;24.92;69.93;98140.33;2148714;80;20982;-89
2021/08/07 11:31:22;;;;;;;7.03;1.65;;;;;;;25.06;69.89;98147.70;2155944;82;21081;-85
2021/08/07 11:34:23;;;;;;;1.47;1.37;;;;;;;25.16;69.53;98135.52;2134160;83;21082;-85
2021/08/07 11:37:26;;;;;;;1.50;1.40;;;;;;;25.26;66.78;98132.70;2133326;83;21580;-87
2021/08/07 11:40:29;;;;;;;2.37;2.27;;;;;;;25.24;67.31;98135.67;2122102;83;21038;-85
2021/08/07 11:43:30;;;;;;;1.75;1.65;;;;;;;25.22;68.23;98133.80;2134224;83;21623;-84
2021/08/07 11:46:31;;;;;;;1.62;1.52;;;;;;;25.19;68.55;98136.27;2134510;83;21022;-86
2021/08/07 11:49:32;;;;;;;1.90;1.80;;;;;;;25.14;68.57;98134.98;2134203;83;21133;-85
2021/08/07 11:52:32;;;;;;;1.45;1.40;;;;;;;25.13;68.52;98138.21;2134380;83;21141;-85
2021/08/07 11:55:33;;;;;;;3.30;2.77;;;;;;;25.17;68.54;98135.77;2134627;83;21002;-85
2021/08/07 11:58:34;;;;;;;2.80;1.60;;;;;;;25.24;69.23;98132.20;2134627;83;21029;-85
2021/08/07 12:01:35;;;;;;;2.05;1.47;;;;;;;25.31;69.29;98133.95;2134567;83;21030;-86
2021/08/07 12:04:36;;;;;;;2.77;2.00;;;;;;;25.38;68.49;98138.42;2135831;83;21413;-84
2021/08/07 12:07:36;;;;;;;2.87;1.70;;;;;;;25.41;68.61;98135.15;2162620;79;21022;-85
2021/08/07 12:10:37;;;;;;;2.00;1.47;;;;;;;25.52;68.76;98133.14;2256336;79;20998;-84
2021/08/07 12:13:38;;;;;;;2.30;1.30;;;;;;;25.61;67.79;98148.82;2256370;79;21545;-84
2021/08/07 12:16:39;;;;;;;1.70;1.40;;;;;;;25.63;66.24;98138.60;2256305;79;21055;-85
2021/08/07 12:19:40;;;;;;;1.40;1.30;;;;;;;25.73;66.28;98137.13;2256966;79;21450;-84
2021/08/07 12:22:40;;;;;;;2.17;1.22;;;;;;;25.86;65.11;98142.28;2256119;79;21018;-83
2021/08/07 12:25:42;;;;;;;0.95;0.95;;;;;;;25.95;65.99;98149.12;2256169;79;21055;-85
2021/08/07 12:28:43;;;;;;;1.35;1.25;;;;;;;26.03;65.38;98147.91;2255905;79;20970;-85
2021/08/07 12:31:44;;;;;;;1.70;1.60;;;;;;;26.08;64.99;98138.45;2255987;79;21025;-85
2021/08/07 12:34:46;;;;;;;3.37;1.52;;;;;;;26.07;64.77;98138.20;2255994;79;21013;-84
2021/08/07 12:37:47;;;;;;;1.37;1.37;;;;;;;26.11;64.24;98135.71;2255884;79;21011;-85
2021/08/07 12:40:47;;;;;;;2.47;2.37;;;;;;;26.06;62.95;98135.27;2255923;79;20975;-83
2021/08/07 12:43:48;;;;;;;3.47;3.20;;;;;;;26.00;63.45;98132.41;2256522;79;21480;-85
2021/08/07 12:46:49;;;;;;;3.15;2.85;;;;;;;26.02;63.41;98125.41;2255880;79;20951;-85
2021/08/07 12:49:50;;;;;;;5.20;4.72;;;;;;;25.96;63.81;98122.55;2256095;79;21538;-85
2021/08/07 12:52:51;;;;;;;12.28;10.82;;;;;;;25.90;64.22;98119.17;2255829;79;20963;-87
2021/08/07 12:55:51;;;;;;;12.63;9.13;;;;;;;25.87;63.95;98113.03;2255935;79;20958;-85
2021/08/07 12:58:52;;;;;;;2.80;2.60;;;;;;;25.87;64.63;98116.27;2255622;79;21519;-86
2021/08/07 13:01:53;;;;;;;4.95;4.37;;;;;;;25.84;63.80;98122.22;2255561;79;20994;-86
2021/08/07 13:04:54;;;;;;;2.65;2.30;;;;;;;25.80;64.19;98119.34;2252870;79;21633;-85
2021/08/07 13:07:54;;;;;;;3.58;1.60;;;;;;;25.77;62.77;98123.92;2244710;79;21042;-85
2021/08/07 13:10:55;;;;;;;2.02;1.77;;;;;;;25.73;62.32;98127.75;2244741;79;21515;-86
2021/08/07 13:13:56;;;;;;;1.80;1.70;;;;;;;25.68;63.03;98122.42;2245222;79;21073;-85
2021/08/07 13:16:57;;;;;;;1.30;1.30;;;;;;;25.63;63.23;98125.20;2245039;79;21051;-84
2021/08/07 13:19:58;;;;;;;2.05;1.57;;;;;;;25.53;62.63;98128.83;2245251;79;21523;-84
2021/08/07 13:22:58;;;;;;;1.85;1.75;;;;;;;25.53;61.87;98123.47;2244825;79;20991;-84
2021/08/07 13:25:59;;;;;;;1.60;1.50;;;;;;;25.50;62.15;98124.58;2244985;79;21506;-85
2021/08/07 13:29:00;;;;;;;2.08;1.98;;;;;;;25.52;62.13;98125.91;2244919;79;21130;-86
2021/08/07 13:32:02;;;;;;;1.90;1.80;;;;;;;25.55;61.44;98121.83;2244979;79;20990;-85
2021/08/07 13:35:02;;;;;;;2.10;2.00;;;;;;;25.67;61.41;98118.70;2244818;79;21102;-85
2021/08/07 13:38:04;;;;;;;1.85;1.75;;;;;;;25.76;61.77;98115.09;2245029;79;20963;-85
2021/08/07 13:41:04;;;;;;;2.00;1.90;;;;;;;25.83;60.89;98112.59;2244974;79;21557;-85
2021/08/07 13:44:06;;;;;;;1.42;1.32;;;;;;;25.88;60.82;98112.48;2244981;79;21020;-85
2021/08/07 13:47:06;;;;;;;1.77;1.67;;;;;;;25.89;60.20;98106.06;2244816;79;21062;-85
2021/08/07 13:50:07;;;;;;;1.42;1.37;;;;;;;25.98;59.63;98106.44;2244732;79;21050;-85
2021/08/07 13:53:08;;;;;;;1.65;1.55;;;;;;;26.04;58.79;98102.55;2244705;79;21011;-85
2021/08/07 13:56:09;;;;;;;1.30;1.30;;;;;;;26.03;58.16;98104.98;2244576;79;21155;-86
2021/08/07 13:59:10;;;;;;;1.92;1.70;;;;;;;26.02;58.26;98106.62;2244851;79;21311;-86
2021/08/07 14:02:10;;;;;;;1.85;1.60;;;;;;;25.98;57.83;98117.16;2245442;79;20991;-85
2021/08/07 14:05:11;;;;;;;2.12;1.90;;;;;;;25.93;58.53;98117.78;2245978;79;21022;-85
2021/08/07 14:08:12;;;;;;;2.22;2.08;;;;;;;25.90;58.64;98114.36;2244963;79;21700;-85
2021/08/07 14:11:13;;;;;;;2.27;2.10;;;;;;;25.92;57.66;98108.94;2244808;79;20959;-85
2021/08/07 14:14:15;;;;;;;2.12;1.92;;;;;;;25.92;57.79;98114.30;2244900;79;21519;-85
2021/08/07 14:17:16;;;;;;;2.87;2.10;;;;;;;25.96;58.45;98109.94;2244921;79;20987;-84
2021/08/07 14:20:16;;;;;;;2.10;2.00;;;;;;;26.01;58.47;98101.02;2175723;80;21020;-88